Christmas/Cassidy, Kiribati
Current Conditions -  °F | °C
As of 12:00 PM on Friday 19 Dec 2014 (Local Time) from PLCH Reporting Station
Scattered Clouds Scattered Clouds  
Wind Chill: 86°   Ceiling: Unl
Heat Index: 93°   Visibility: 6mi
Dew Point: 73°   Wind: 14mph
Humidity: 66%   Direction: 100°E
Pressure: 29.77"   Gusts: NA
Location:  1.98°N, 157.48°W
Report Text: PLCH 190000Z 10012KT 9999 FEW018 SCT024 30/23 Q1008
Loading
Personal Weather Stations






























Interactive Weather Map New forecast layout! Learn more

10-Day Weather Forecast

Advertisements
Track Severe Weather on mobile